sensor_id;sensor_type;location;lat;lon;timestamp;P1;durP1;ratioP1;P2;durP2;ratioP2
6898;SDS011;3488;42.616;23.350;2023-04-24T00:02:00;8.43;;;7.35;;
6898;SDS011;3488;42.616;23.350;2023-04-24T00:04:28;8.40;;;7.05;;
6898;SDS011;3488;42.616;23.350;2023-04-24T00:06:56;7.63;;;6.93;;
6898;SDS011;3488;42.616;23.350;2023-04-24T00:09:25;8.27;;;7.07;;
6898;SDS011;3488;42.616;23.350;2023-04-24T00:11:52;10.82;;;7.13;;
6898;SDS011;3488;42.616;23.350;2023-04-24T00:14:21;7.15;;;6.50;;
6898;SDS011;3488;42.616;23.350;2023-04-24T00:16:49;7.03;;;6.40;;
6898;SDS011;3488;42.616;23.350;2023-04-24T00:19:16;9.55;;;6.95;;
6898;SDS011;3488;42.616;23.350;2023-04-24T00:21:46;6.85;;;6.30;;
6898;SDS011;3488;42.616;23.350;2023-04-24T00:24:15;9.90;;;6.53;;
6898;SDS011;3488;42.616;23.350;2023-04-24T00:26:42;7.18;;;6.47;;
6898;SDS011;3488;42.616;23.350;2023-04-24T00:29:09;8.13;;;6.68;;
6898;SDS011;3488;42.616;23.350;2023-04-24T00:31:37;6.50;;;5.95;;
6898;SDS011;3488;42.616;23.350;2023-04-24T00:34:06;7.13;;;6.53;;
6898;SDS011;3488;42.616;23.350;2023-04-24T00:36:33;7.93;;;6.47;;
6898;SDS011;3488;42.616;23.350;2023-04-24T00:39:00;9.10;;;6.50;;
6898;SDS011;3488;42.616;23.350;2023-04-24T00:41:27;9.90;;;6.72;;
6898;SDS011;3488;42.616;23.350;2023-04-24T00:43:55;7.07;;;6.43;;
6898;SDS011;3488;42.616;23.350;2023-04-24T00:46:22;10.00;;;7.72;;
6898;SDS011;3488;42.616;23.350;2023-04-24T00:48:49;8.63;;;7.78;;
6898;SDS011;3488;42.616;23.350;2023-04-24T00:51:18;8.98;;;7.85;;
6898;SDS011;3488;42.616;23.350;2023-04-24T00:53:46;10.02;;;8.15;;
6898;SDS011;3488;42.616;23.350;2023-04-24T00:56:13;13.23;;;8.90;;
6898;SDS011;3488;42.616;23.350;2023-04-24T00:58:40;13.05;;;8.70;;
6898;SDS011;3488;42.616;23.350;2023-04-24T01:01:09;11.88;;;8.90;;
6898;SDS011;3488;42.616;23.350;2023-04-24T01:03:37;8.88;;;8.00;;
6898;SDS011;3488;42.616;23.350;2023-04-24T01:06:04;13.70;;;8.95;;
6898;SDS011;3488;42.616;23.350;2023-04-24T01:08:34;13.57;;;8.65;;
6898;SDS011;3488;42.616;23.350;2023-04-24T01:11:03;10.27;;;7.95;;
6898;SDS011;3488;42.616;23.350;2023-04-24T01:13:31;10.25;;;7.90;;
6898;SDS011;3488;42.616;23.350;2023-04-24T01:15:59;8.88;;;7.95;;
6898;SDS011;3488;42.616;23.350;2023-04-24T01:18:27;8.52;;;7.63;;
6898;SDS011;3488;42.616;23.350;2023-04-24T01:20:56;8.35;;;7.55;;
6898;SDS011;3488;42.616;23.350;2023-04-24T01:23:26;8.00;;;7.20;;
6898;SDS011;3488;42.616;23.350;2023-04-24T01:25:54;10.73;;;7.13;;
6898;SDS011;3488;42.616;23.350;2023-04-24T01:28:21;9.20;;;7.80;;
6898;SDS011;3488;42.616;23.350;2023-04-24T01:30:49;7.72;;;6.93;;
6898;SDS011;3488;42.616;23.350;2023-04-24T01:33:17;10.25;;;7.82;;
6898;SDS011;3488;42.616;23.350;2023-04-24T01:35:44;9.07;;;7.60;;
6898;SDS011;3488;42.616;23.350;2023-04-24T01:38:11;9.80;;;7.57;;
6898;SDS011;3488;42.616;23.350;2023-04-24T01:40:40;8.43;;;7.60;;
6898;SDS011;3488;42.616;23.350;2023-04-24T01:43:07;10.82;;;8.27;;
6898;SDS011;3488;42.616;23.350;2023-04-24T01:45:34;10.32;;;8.43;;
6898;SDS011;3488;42.616;23.350;2023-04-24T01:48:01;14.73;;;8.38;;
6898;SDS011;3488;42.616;23.350;2023-04-24T01:50:28;10.65;;;9.55;;
6898;SDS011;3488;42.616;23.350;2023-04-24T01:52:55;11.68;;;9.45;;
6898;SDS011;3488;42.616;23.350;2023-04-24T01:55:23;11.15;;;9.80;;
6898;SDS011;3488;42.616;23.350;2023-04-24T01:57:52;11.98;;;10.30;;
6898;SDS011;3488;42.616;23.350;2023-04-24T02:00:22;15.43;;;10.40;;
6898;SDS011;3488;42.616;23.350;2023-04-24T02:02:50;12.10;;;9.68;;
6898;SDS011;3488;42.616;23.350;2023-04-24T02:05:17;14.23;;;9.63;;
6898;SDS011;3488;42.616;23.350;2023-04-24T02:07:45;11.15;;;9.80;;
6898;SDS011;3488;42.616;23.350;2023-04-24T02:10:12;11.25;;;10.05;;
6898;SDS011;3488;42.616;23.350;2023-04-24T02:12:39;13.02;;;8.85;;
6898;SDS011;3488;42.616;23.350;2023-04-24T02:15:08;12.00;;;9.90;;
6898;SDS011;3488;42.616;23.350;2023-04-24T02:17:36;9.23;;;8.27;;
6898;SDS011;3488;42.616;23.350;2023-04-24T02:20:03;12.50;;;9.18;;
6898;SDS011;3488;42.616;23.350;2023-04-24T02:22:31;12.27;;;9.38;;
6898;SDS011;3488;42.616;23.350;2023-04-24T02:24:57;12.35;;;8.95;;
6898;SDS011;3488;42.616;23.350;2023-04-24T02:27:25;10.50;;;9.18;;
6898;SDS011;3488;42.616;23.350;2023-04-24T02:29:52;10.77;;;9.45;;
6898;SDS011;3488;42.616;23.350;2023-04-24T02:32:21;11.52;;;8.60;;
6898;SDS011;3488;42.616;23.350;2023-04-24T02:34:48;9.02;;;8.10;;
6898;SDS011;3488;42.616;23.350;2023-04-24T02:37:16;8.88;;;8.00;;
6898;SDS011;3488;42.616;23.350;2023-04-24T02:39:43;8.68;;;7.78;;
6898;SDS011;3488;42.616;23.350;2023-04-24T02:42:10;9.90;;;8.65;;
6898;SDS011;3488;42.616;23.350;2023-04-24T02:44:39;10.32;;;9.20;;
6898;SDS011;3488;42.616;23.350;2023-04-24T02:47:06;9.38;;;8.40;;
6898;SDS011;3488;42.616;23.350;2023-04-24T02:49:35;8.23;;;7.50;;
6898;SDS011;3488;42.616;23.350;2023-04-24T02:52:02;9.05;;;8.07;;
6898;SDS011;3488;42.616;23.350;2023-04-24T02:54:29;9.55;;;8.65;;
6898;SDS011;3488;42.616;23.350;2023-04-24T02:56:56;8.85;;;7.95;;
6898;SDS011;3488;42.616;23.350;2023-04-24T02:59:23;9.77;;;8.20;;
6898;SDS011;3488;42.616;23.350;2023-04-24T03:01:52;9.23;;;8.00;;
6898;SDS011;3488;42.616;23.350;2023-04-24T03:04:19;8.25;;;7.55;;
6898;SDS011;3488;42.616;23.350;2023-04-24T03:06:49;8.40;;;7.18;;
6898;SDS011;3488;42.616;23.350;2023-04-24T03:09:17;9.98;;;7.90;;
6898;SDS011;3488;42.616;23.350;2023-04-24T03:11:45;8.95;;;8.07;;
6898;SDS011;3488;42.616;23.350;2023-04-24T03:14:13;8.35;;;7.47;;
6898;SDS011;3488;42.616;23.350;2023-04-24T03:16:40;9.05;;;8.25;;
6898;SDS011;3488;42.616;23.350;2023-04-24T03:19:07;9.73;;;8.82;;
6898;SDS011;3488;42.616;23.350;2023-04-24T03:21:34;12.20;;;9.07;;
6898;SDS011;3488;42.616;23.350;2023-04-24T03:24:07;10.10;;;8.43;;
6898;SDS011;3488;42.616;23.350;2023-04-24T03:26:34;10.95;;;9.60;;
6898;SDS011;3488;42.616;23.350;2023-04-24T03:29:02;12.45;;;9.52;;
6898;SDS011;3488;42.616;23.350;2023-04-24T03:31:28;9.43;;;8.50;;
6898;SDS011;3488;42.616;23.350;2023-04-24T03:33:55;10.82;;;9.57;;
6898;SDS011;3488;42.616;23.350;2023-04-24T03:36:22;8.27;;;7.57;;
6898;SDS011;3488;42.616;23.350;2023-04-24T03:38:51;9.63;;;8.73;;
6898;SDS011;3488;42.616;23.350;2023-04-24T03:41:19;11.68;;;8.75;;
6898;SDS011;3488;42.616;23.350;2023-04-24T03:43:47;10.63;;;9.52;;
6898;SDS011;3488;42.616;23.350;2023-04-24T03:46:14;10.75;;;8.38;;
6898;SDS011;3488;42.616;23.350;2023-04-24T03:48:42;10.65;;;9.45;;
6898;SDS011;3488;42.616;23.350;2023-04-24T03:51:09;10.50;;;8.20;;
6898;SDS011;3488;42.616;23.350;2023-04-24T03:53:36;7.97;;;7.18;;
6898;SDS011;3488;42.616;23.350;2023-04-24T03:56:03;7.25;;;6.60;;
6898;SDS011;3488;42.616;23.350;2023-04-24T03:58:32;7.60;;;7.00;;
6898;SDS011;3488;42.616;23.350;2023-04-24T04:00:59;8.38;;;7.03;;
6898;SDS011;3488;42.616;23.350;2023-04-24T04:03:26;10.20;;;7.50;;
6898;SDS011;3488;42.616;23.350;2023-04-24T04:05:53;8.05;;;7.25;;
6898;SDS011;3488;42.616;23.350;2023-04-24T04:08:20;9.23;;;6.97;;
6898;SDS011;3488;42.616;23.350;2023-04-24T04:10:47;7.47;;;6.78;;
6898;SDS011;3488;42.616;23.350;2023-04-24T04:13:14;8.50;;;7.72;;
6898;SDS011;3488;42.616;23.350;2023-04-24T04:15:42;9.43;;;8.27;;
6898;SDS011;3488;42.616;23.350;2023-04-24T04:18:09;10.98;;;8.50;;
6898;SDS011;3488;42.616;23.350;2023-04-24T04:20:36;12.38;;;8.88;;
6898;SDS011;3488;42.616;23.350;2023-04-24T04:23:03;10.63;;;8.50;;
6898;SDS011;3488;42.616;23.350;2023-04-24T04:25:30;9.18;;;7.50;;
6898;SDS011;3488;42.616;23.350;2023-04-24T04:27:57;9.20;;;8.05;;
6898;SDS011;3488;42.616;23.350;2023-04-24T04:30:25;10.60;;;7.18;;
6898;SDS011;3488;42.616;23.350;2023-04-24T04:32:55;12.73;;;7.90;;
6898;SDS011;3488;42.616;23.350;2023-04-24T04:35:22;8.35;;;7.65;;
6898;SDS011;3488;42.616;23.350;2023-04-24T04:37:50;8.82;;;7.88;;
6898;SDS011;3488;42.616;23.350;2023-04-24T04:40:17;7.47;;;6.85;;
6898;SDS011;3488;42.616;23.350;2023-04-24T04:42:44;10.73;;;7.88;;
6898;SDS011;3488;42.616;23.350;2023-04-24T04:45:12;9.35;;;8.50;;
6898;SDS011;3488;42.616;23.350;2023-04-24T04:47:42;8.55;;;7.85;;
6898;SDS011;3488;42.616;23.350;2023-04-24T04:50:11;8.77;;;7.95;;
6898;SDS011;3488;42.616;23.350;2023-04-24T04:52:38;10.75;;;8.20;;
6898;SDS011;3488;42.616;23.350;2023-04-24T04:55:06;15.00;;;8.27;;
6898;SDS011;3488;42.616;23.350;2023-04-24T04:57:33;11.23;;;7.25;;
6898;SDS011;3488;42.616;23.350;2023-04-24T05:00:00;11.30;;;7.85;;
6898;SDS011;3488;42.616;23.350;2023-04-24T05:02:29;10.40;;;7.35;;
6898;SDS011;3488;42.616;23.350;2023-04-24T05:04:56;8.52;;;7.38;;
6898;SDS011;3488;42.616;23.350;2023-04-24T05:07:27;8.82;;;7.93;;
6898;SDS011;3488;42.616;23.350;2023-04-24T05:09:54;9.27;;;8.25;;
6898;SDS011;3488;42.616;23.350;2023-04-24T05:12:21;10.65;;;8.20;;
6898;SDS011;3488;42.616;23.350;2023-04-24T05:14:47;10.00;;;7.15;;
6898;SDS011;3488;42.616;23.350;2023-04-24T05:17:14;9.20;;;8.27;;
6898;SDS011;3488;42.616;23.350;2023-04-24T05:19:42;11.18;;;8.45;;
6898;SDS011;3488;42.616;23.350;2023-04-24T05:22:09;11.32;;;8.32;;
6898;SDS011;3488;42.616;23.350;2023-04-24T05:24:38;8.68;;;7.82;;
6898;SDS011;3488;42.616;23.350;2023-04-24T05:27:05;15.35;;;8.48;;
6898;SDS011;3488;42.616;23.350;2023-04-24T05:29:32;11.07;;;8.20;;
6898;SDS011;3488;42.616;23.350;2023-04-24T05:32:00;14.10;;;8.65;;
6898;SDS011;3488;42.616;23.350;2023-04-24T05:34:28;8.27;;;7.47;;
6898;SDS011;3488;42.616;23.350;2023-04-24T05:36:55;9.70;;;8.30;;
6898;SDS011;3488;42.616;23.350;2023-04-24T05:39:24;14.10;;;9.70;;
6898;SDS011;3488;42.616;23.350;2023-04-24T05:41:53;11.60;;;9.07;;
6898;SDS011;3488;42.616;23.350;2023-04-24T05:44:20;16.38;;;9.57;;
6898;SDS011;3488;42.616;23.350;2023-04-24T05:46:47;10.43;;;9.30;;
6898;SDS011;3488;42.616;23.350;2023-04-24T05:49:13;13.50;;;9.50;;
6898;SDS011;3488;42.616;23.350;2023-04-24T05:51:40;9.40;;;8.48;;
6898;SDS011;3488;42.616;23.350;2023-04-24T05:54:07;14.18;;;9.13;;
6898;SDS011;3488;42.616;23.350;2023-04-24T05:56:37;12.20;;;9.00;;
6898;SDS011;3488;42.616;23.350;2023-04-24T05:59:05;14.15;;;8.77;;
6898;SDS011;3488;42.616;23.350;2023-04-24T06:01:32;9.25;;;8.30;;
6898;SDS011;3488;42.616;23.350;2023-04-24T06:03:59;15.48;;;9.43;;
6898;SDS011;3488;42.616;23.350;2023-04-24T06:06:26;14.70;;;8.88;;
6898;SDS011;3488;42.616;23.350;2023-04-24T06:08:54;9.88;;;8.88;;
6898;SDS011;3488;42.616;23.350;2023-04-24T06:11:22;18.77;;;9.45;;
6898;SDS011;3488;42.616;23.350;2023-04-24T06:13:49;11.35;;;9.25;;
6898;SDS011;3488;42.616;23.350;2023-04-24T06:16:18;9.98;;;8.70;;
6898;SDS011;3488;42.616;23.350;2023-04-24T06:18:45;13.98;;;9.20;;
6898;SDS011;3488;42.616;23.350;2023-04-24T06:21:12;10.27;;;9.00;;
6898;SDS011;3488;42.616;23.350;2023-04-24T06:23:40;13.45;;;9.95;;
6898;SDS011;3488;42.616;23.350;2023-04-24T06:26:07;16.08;;;9.73;;
6898;SDS011;3488;42.616;23.350;2023-04-24T06:28:34;11.65;;;9.02;;
6898;SDS011;3488;42.616;23.350;2023-04-24T06:31:04;11.25;;;8.98;;
6898;SDS011;3488;42.616;23.350;2023-04-24T06:33:33;16.45;;;10.38;;
6898;SDS011;3488;42.616;23.350;2023-04-24T06:36:00;14.73;;;10.15;;
6898;SDS011;3488;42.616;23.350;2023-04-24T06:38:29;12.77;;;10.25;;
6898;SDS011;3488;42.616;23.350;2023-04-24T06:40:56;14.85;;;10.13;;
6898;SDS011;3488;42.616;23.350;2023-04-24T06:43:22;13.85;;;8.50;;
6898;SDS011;3488;42.616;23.350;2023-04-24T06:45:49;9.57;;;8.68;;
6898;SDS011;3488;42.616;23.350;2023-04-24T06:48:16;11.63;;;9.98;;
6898;SDS011;3488;42.616;23.350;2023-04-24T06:50:44;14.57;;;9.15;;
6898;SDS011;3488;42.616;23.350;2023-04-24T06:53:12;10.90;;;8.05;;
6898;SDS011;3488;42.616;23.350;2023-04-24T06:55:39;14.10;;;8.60;;
6898;SDS011;3488;42.616;23.350;2023-04-24T06:58:08;11.95;;;7.35;;
6898;SDS011;3488;42.616;23.350;2023-04-24T07:00:35;12.38;;;8.35;;
6898;SDS011;3488;42.616;23.350;2023-04-24T07:03:02;12.05;;;8.60;;
6898;SDS011;3488;42.616;23.350;2023-04-24T07:05:30;14.40;;;8.02;;
6898;SDS011;3488;42.616;23.350;2023-04-24T07:08:00;11.38;;;8.18;;
6898;SDS011;3488;42.616;23.350;2023-04-24T07:10:27;12.38;;;7.88;;
6898;SDS011;3488;42.616;23.350;2023-04-24T07:12:54;10.20;;;8.25;;
6898;SDS011;3488;42.616;23.350;2023-04-24T07:15:21;15.27;;;8.35;;
6898;SDS011;3488;42.616;23.350;2023-04-24T07:17:49;10.10;;;8.50;;
6898;SDS011;3488;42.616;23.350;2023-04-24T07:20:17;8.85;;;7.95;;
6898;SDS011;3488;42.616;23.350;2023-04-24T07:22:43;13.60;;;7.03;;
6898;SDS011;3488;42.616;23.350;2023-04-24T07:25:12;10.73;;;6.80;;
6898;SDS011;3488;42.616;23.350;2023-04-24T07:27:39;11.55;;;6.65;;
6898;SDS011;3488;42.616;23.350;2023-04-24T07:30:06;7.60;;;6.85;;
6898;SDS011;3488;42.616;23.350;2023-04-24T07:32:34;6.97;;;6.28;;
6898;SDS011;3488;42.616;23.350;2023-04-24T07:35:01;10.68;;;7.00;;
6898;SDS011;3488;42.616;23.350;2023-04-24T07:37:31;7.15;;;6.57;;
6898;SDS011;3488;42.616;23.350;2023-04-24T07:39:58;6.40;;;5.70;;
6898;SDS011;3488;42.616;23.350;2023-04-24T07:42:27;6.50;;;5.95;;
6898;SDS011;3488;42.616;23.350;2023-04-24T07:44:55;11.38;;;7.65;;
6898;SDS011;3488;42.616;23.350;2023-04-24T07:47:22;11.95;;;7.05;;
6898;SDS011;3488;42.616;23.350;2023-04-24T07:49:49;6.35;;;5.85;;
6898;SDS011;3488;42.616;23.350;2023-04-24T07:52:16;5.60;;;5.20;;
6898;SDS011;3488;42.616;23.350;2023-04-24T07:54:44;6.15;;;5.57;;
6898;SDS011;3488;42.616;23.350;2023-04-24T07:57:12;7.43;;;5.90;;
6898;SDS011;3488;42.616;23.350;2023-04-24T07:59:41;7.22;;;6.53;;
6898;SDS011;3488;42.616;23.350;2023-04-24T08:02:08;7.22;;;6.60;;
6898;SDS011;3488;42.616;23.350;2023-04-24T08:04:36;8.60;;;6.00;;
6898;SDS011;3488;42.616;23.350;2023-04-24T08:07:03;6.93;;;6.05;;
6898;SDS011;3488;42.616;23.350;2023-04-24T08:09:30;7.00;;;6.05;;
6898;SDS011;3488;42.616;23.350;2023-04-24T08:11:57;7.35;;;6.65;;
6898;SDS011;3488;42.616;23.350;2023-04-24T08:14:24;9.02;;;6.90;;
6898;SDS011;3488;42.616;23.350;2023-04-24T08:16:53;6.85;;;6.18;;
6898;SDS011;3488;42.616;23.350;2023-04-24T08:19:21;9.77;;;6.93;;
6898;SDS011;3488;42.616;23.350;2023-04-24T08:21:48;10.27;;;6.97;;
6898;SDS011;3488;42.616;23.350;2023-04-24T08:24:15;11.35;;;7.95;;
6898;SDS011;3488;42.616;23.350;2023-04-24T08:26:42;11.68;;;7.30;;
6898;SDS011;3488;42.616;23.350;2023-04-24T08:29:09;8.85;;;7.35;;
6898;SDS011;3488;42.616;23.350;2023-04-24T08:31:36;6.93;;;6.25;;
6898;SDS011;3488;42.616;23.350;2023-04-24T08:34:04;7.57;;;6.80;;
6898;SDS011;3488;42.616;23.350;2023-04-24T08:36:31;8.45;;;6.45;;
6898;SDS011;3488;42.616;23.350;2023-04-24T08:38:59;12.18;;;7.85;;
6898;SDS011;3488;42.616;23.350;2023-04-24T08:41:26;8.13;;;7.35;;
6898;SDS011;3488;42.616;23.350;2023-04-24T08:43:54;9.77;;;7.25;;
6898;SDS011;3488;42.616;23.350;2023-04-24T08:46:23;9.90;;;6.63;;
6898;SDS011;3488;42.616;23.350;2023-04-24T08:48:51;11.10;;;7.35;;
6898;SDS011;3488;42.616;23.350;2023-04-24T08:51:20;10.80;;;7.45;;
6898;SDS011;3488;42.616;23.350;2023-04-24T08:53:47;9.35;;;7.80;;
6898;SDS011;3488;42.616;23.350;2023-04-24T08:56:14;7.90;;;6.65;;
6898;SDS011;3488;42.616;23.350;2023-04-24T08:58:42;10.48;;;6.47;;
6898;SDS011;3488;42.616;23.350;2023-04-24T09:01:10;7.75;;;6.53;;
6898;SDS011;3488;42.616;23.350;2023-04-24T09:03:38;9.27;;;6.68;;
6898;SDS011;3488;42.616;23.350;2023-04-24T09:06:06;7.07;;;6.45;;
6898;SDS011;3488;42.616;23.350;2023-04-24T09:08:37;6.50;;;6.07;;
6898;SDS011;3488;42.616;23.350;2023-04-24T09:11:05;7.63;;;6.05;;
6898;SDS011;3488;42.616;23.350;2023-04-24T09:13:32;8.52;;;5.88;;
6898;SDS011;3488;42.616;23.350;2023-04-24T09:16:00;9.25;;;6.30;;
6898;SDS011;3488;42.616;23.350;2023-04-24T09:18:27;9.57;;;6.38;;
6898;SDS011;3488;42.616;23.350;2023-04-24T09:20:57;6.18;;;5.57;;
6898;SDS011;3488;42.616;23.350;2023-04-24T09:23:25;8.02;;;6.13;;
6898;SDS011;3488;42.616;23.350;2023-04-24T09:25:55;10.07;;;6.15;;
6898;SDS011;3488;42.616;23.350;2023-04-24T09:28:25;7.28;;;6.20;;
6898;SDS011;3488;42.616;23.350;2023-04-24T09:31:01;7.07;;;5.63;;
6898;SDS011;3488;42.616;23.350;2023-04-24T09:33:33;6.00;;;5.40;;
6898;SDS011;3488;42.616;23.350;2023-04-24T09:36:00;6.50;;;5.90;;
6898;SDS011;3488;42.616;23.350;2023-04-24T09:38:30;5.70;;;5.28;;
6898;SDS011;3488;42.616;23.350;2023-04-24T09:41:00;6.53;;;5.82;;
6898;SDS011;3488;42.616;23.350;2023-04-24T09:43:29;6.15;;;5.65;;
6898;SDS011;3488;42.616;23.350;2023-04-24T09:45:56;5.55;;;5.10;;
6898;SDS011;3488;42.616;23.350;2023-04-24T09:48:31;5.85;;;5.45;;
6898;SDS011;3488;42.616;23.350;2023-04-24T09:51:00;6.85;;;4.85;;
6898;SDS011;3488;42.616;23.350;2023-04-24T09:53:28;12.32;;;4.80;;
6898;SDS011;3488;42.616;23.350;2023-04-24T09:55:56;6.03;;;5.03;;
6898;SDS011;3488;42.616;23.350;2023-04-24T09:58:37;5.28;;;4.93;;
6898;SDS011;3488;42.616;23.350;2023-04-24T10:01:04;6.70;;;5.18;;
6898;SDS011;3488;42.616;23.350;2023-04-24T10:03:31;5.72;;;5.25;;
6898;SDS011;3488;42.616;23.350;2023-04-24T10:05:59;5.50;;;4.78;;
6898;SDS011;3488;42.616;23.350;2023-04-24T10:08:29;6.28;;;4.40;;
6898;SDS011;3488;42.616;23.350;2023-04-24T10:11:00;5.78;;;4.43;;
6898;SDS011;3488;42.616;23.350;2023-04-24T10:13:28;5.47;;;4.90;;
6898;SDS011;3488;42.616;23.350;2023-04-24T10:15:56;7.10;;;4.68;;
6898;SDS011;3488;42.616;23.350;2023-04-24T10:18:27;4.93;;;4.53;;
6898;SDS011;3488;42.616;23.350;2023-04-24T10:20:55;9.20;;;5.25;;
6898;SDS011;3488;42.616;23.350;2023-04-24T10:23:23;7.70;;;4.53;;
6898;SDS011;3488;42.616;23.350;2023-04-24T10:25:52;4.78;;;4.38;;
6898;SDS011;3488;42.616;23.350;2023-04-24T10:28:20;5.22;;;4.72;;
6898;SDS011;3488;42.616;23.350;2023-04-24T10:30:49;8.15;;;5.40;;
6898;SDS011;3488;42.616;23.350;2023-04-24T10:33:20;6.68;;;4.70;;
6898;SDS011;3488;42.616;23.350;2023-04-24T10:35:49;5.00;;;4.60;;
6898;SDS011;3488;42.616;23.350;2023-04-24T10:38:18;5.53;;;4.93;;
6898;SDS011;3488;42.616;23.350;2023-04-24T10:40:51;5.38;;;4.95;;
6898;SDS011;3488;42.616;23.350;2023-04-24T10:43:18;4.90;;;4.50;;
6898;SDS011;3488;42.616;23.350;2023-04-24T10:48:30;4.60;;;4.18;;
6898;SDS011;3488;42.616;23.350;2023-04-24T10:50:58;3.83;;;3.63;;
6898;SDS011;3488;42.616;23.350;2023-04-24T10:53:27;4.45;;;4.03;;
6898;SDS011;3488;42.616;23.350;2023-04-24T10:55:58;4.15;;;3.85;;
6898;SDS011;3488;42.616;23.350;2023-04-24T10:58:35;4.00;;;3.63;;
6898;SDS011;3488;42.616;23.350;2023-04-24T11:01:07;5.85;;;3.92;;
6898;SDS011;3488;42.616;23.350;2023-04-24T11:03:34;4.45;;;4.07;;
6898;SDS011;3488;42.616;23.350;2023-04-24T11:06:03;9.45;;;3.85;;
6898;SDS011;3488;42.616;23.350;2023-04-24T11:08:32;4.22;;;3.92;;
6898;SDS011;3488;42.616;23.350;2023-04-24T11:11:07;3.78;;;3.47;;
6898;SDS011;3488;42.616;23.350;2023-04-24T11:16:31;4.43;;;3.70;;
6898;SDS011;3488;42.616;23.350;2023-04-24T11:19:04;3.70;;;3.50;;
6898;SDS011;3488;42.616;23.350;2023-04-24T11:21:38;3.85;;;3.55;;
6898;SDS011;3488;42.616;23.350;2023-04-24T11:26:54;4.30;;;3.90;;
6898;SDS011;3488;42.616;23.350;2023-04-24T11:29:22;5.55;;;3.75;;
6898;SDS011;3488;42.616;23.350;2023-04-24T11:31:50;4.85;;;3.15;;
6898;SDS011;3488;42.616;23.350;2023-04-24T11:34:17;3.45;;;2.85;;
6898;SDS011;3488;42.616;23.350;2023-04-24T11:36:45;3.30;;;3.10;;
6898;SDS011;3488;42.616;23.350;2023-04-24T11:39:13;3.97;;;3.13;;
6898;SDS011;3488;42.616;23.350;2023-04-24T11:41:40;3.35;;;3.05;;
6898;SDS011;3488;42.616;23.350;2023-04-24T11:44:08;4.20;;;3.70;;
6898;SDS011;3488;42.616;23.350;2023-04-24T11:46:36;3.83;;;3.60;;
6898;SDS011;3488;42.616;23.350;2023-04-24T11:49:06;5.00;;;4.50;;
6898;SDS011;3488;42.616;23.350;2023-04-24T11:51:33;4.70;;;4.40;;
6898;SDS011;3488;42.616;23.350;2023-04-24T11:54:01;5.00;;;4.60;;
6898;SDS011;3488;42.616;23.350;2023-04-24T11:56:28;5.45;;;5.00;;
6898;SDS011;3488;42.616;23.350;2023-04-24T11:58:55;5.38;;;4.90;;
6898;SDS011;3488;42.616;23.350;2023-04-24T12:01:21;4.65;;;4.35;;
6898;SDS011;3488;42.616;23.350;2023-04-24T12:03:49;5.50;;;5.10;;
6898;SDS011;3488;42.616;23.350;2023-04-24T12:06:18;5.43;;;4.93;;
6898;SDS011;3488;42.616;23.350;2023-04-24T12:08:46;5.05;;;4.55;;
6898;SDS011;3488;42.616;23.350;2023-04-24T12:11:14;5.38;;;4.97;;
6898;SDS011;3488;42.616;23.350;2023-04-24T12:13:44;5.40;;;4.97;;
6898;SDS011;3488;42.616;23.350;2023-04-24T12:16:12;5.15;;;4.75;;
6898;SDS011;3488;42.616;23.350;2023-04-24T12:18:42;4.97;;;4.57;;
6898;SDS011;3488;42.616;23.350;2023-04-24T12:21:21;4.22;;;3.97;;
6898;SDS011;3488;42.616;23.350;2023-04-24T12:23:53;4.22;;;3.90;;
6898;SDS011;3488;42.616;23.350;2023-04-24T12:26:23;3.28;;;3.08;;
6898;SDS011;3488;42.616;23.350;2023-04-24T12:28:50;3.60;;;3.40;;
6898;SDS011;3488;42.616;23.350;2023-04-24T12:31:17;4.05;;;3.85;;
6898;SDS011;3488;42.616;23.350;2023-04-24T12:33:48;4.88;;;4.47;;
6898;SDS011;3488;42.616;23.350;2023-04-24T12:36:15;5.10;;;4.70;;
6898;SDS011;3488;42.616;23.350;2023-04-24T12:38:44;4.40;;;4.00;;
6898;SDS011;3488;42.616;23.350;2023-04-24T12:41:12;5.63;;;4.93;;
6898;SDS011;3488;42.616;23.350;2023-04-24T12:43:50;5.82;;;4.30;;
6898;SDS011;3488;42.616;23.350;2023-04-24T12:46:18;4.47;;;4.20;;
6898;SDS011;3488;42.616;23.350;2023-04-24T12:48:45;8.82;;;5.32;;
6898;SDS011;3488;42.616;23.350;2023-04-24T12:51:12;6.57;;;4.97;;
6898;SDS011;3488;42.616;23.350;2023-04-24T12:53:39;6.40;;;5.75;;
6898;SDS011;3488;42.616;23.350;2023-04-24T12:56:07;8.35;;;5.25;;
6898;SDS011;3488;42.616;23.350;2023-04-24T12:58:34;6.22;;;5.63;;
6898;SDS011;3488;42.616;23.350;2023-04-24T13:01:02;6.13;;;5.68;;
6898;SDS011;3488;42.616;23.350;2023-04-24T13:03:29;6.25;;;5.78;;
6898;SDS011;3488;42.616;23.350;2023-04-24T13:05:56;5.88;;;5.45;;
6898;SDS011;3488;42.616;23.350;2023-04-24T13:08:23;5.57;;;5.18;;
6898;SDS011;3488;42.616;23.350;2023-04-24T13:10:50;5.80;;;5.30;;
6898;SDS011;3488;42.616;23.350;2023-04-24T13:13:20;5.65;;;5.10;;
6898;SDS011;3488;42.616;23.350;2023-04-24T13:15:47;4.55;;;4.30;;
6898;SDS011;3488;42.616;23.350;2023-04-24T13:18:14;3.83;;;3.55;;
6898;SDS011;3488;42.616;23.350;2023-04-24T13:20:42;4.82;;;4.53;;
6898;SDS011;3488;42.616;23.350;2023-04-24T13:23:09;4.18;;;3.97;;
6898;SDS011;3488;42.616;23.350;2023-04-24T13:25:36;4.18;;;3.97;;
6898;SDS011;3488;42.616;23.350;2023-04-24T13:28:04;6.50;;;4.10;;
6898;SDS011;3488;42.616;23.350;2023-04-24T13:30:32;5.90;;;3.95;;
6898;SDS011;3488;42.616;23.350;2023-04-24T13:32:59;5.47;;;4.18;;
6898;SDS011;3488;42.616;23.350;2023-04-24T13:35:27;4.18;;;3.88;;
6898;SDS011;3488;42.616;23.350;2023-04-24T13:37:54;4.32;;;4.07;;
6898;SDS011;3488;42.616;23.350;2023-04-24T13:40:21;4.22;;;3.92;;
6898;SDS011;3488;42.616;23.350;2023-04-24T13:42:48;4.28;;;3.88;;
6898;SDS011;3488;42.616;23.350;2023-04-24T13:45:15;4.40;;;4.10;;
6898;SDS011;3488;42.616;23.350;2023-04-24T13:47:44;4.18;;;3.88;;
6898;SDS011;3488;42.616;23.350;2023-04-24T13:50:10;3.83;;;3.53;;
6898;SDS011;3488;42.616;23.350;2023-04-24T13:52:37;4.45;;;4.10;;
6898;SDS011;3488;42.616;23.350;2023-04-24T13:55:05;3.90;;;3.63;;
6898;SDS011;3488;42.616;23.350;2023-04-24T13:57:32;3.65;;;3.35;;
6898;SDS011;3488;42.616;23.350;2023-04-24T14:00:00;4.28;;;3.97;;
6898;SDS011;3488;42.616;23.350;2023-04-24T14:02:29;4.28;;;4.07;;
6898;SDS011;3488;42.616;23.350;2023-04-24T14:04:57;4.03;;;3.70;;
6898;SDS011;3488;42.616;23.350;2023-04-24T14:07:24;3.67;;;3.33;;
6898;SDS011;3488;42.616;23.350;2023-04-24T14:09:51;3.83;;;3.63;;
6898;SDS011;3488;42.616;23.350;2023-04-24T14:12:18;3.50;;;3.20;;
6898;SDS011;3488;42.616;23.350;2023-04-24T14:14:46;4.15;;;3.85;;
6898;SDS011;3488;42.616;23.350;2023-04-24T14:17:13;3.70;;;3.42;;
6898;SDS011;3488;42.616;23.350;2023-04-24T14:19:41;3.67;;;3.45;;
6898;SDS011;3488;42.616;23.350;2023-04-24T14:22:09;4.78;;;2.85;;
6898;SDS011;3488;42.616;23.350;2023-04-24T14:24:36;3.45;;;3.15;;
6898;SDS011;3488;42.616;23.350;2023-04-24T14:27:03;3.10;;;3.00;;
6898;SDS011;3488;42.616;23.350;2023-04-24T14:29:30;3.33;;;3.15;;
6898;SDS011;3488;42.616;23.350;2023-04-24T14:31:58;5.65;;;3.33;;
6898;SDS011;3488;42.616;23.350;2023-04-24T14:34:25;4.15;;;3.40;;
6898;SDS011;3488;42.616;23.350;2023-04-24T14:36:52;3.00;;;2.80;;
6898;SDS011;3488;42.616;23.350;2023-04-24T14:39:21;2.90;;;2.80;;
6898;SDS011;3488;42.616;23.350;2023-04-24T14:41:47;5.75;;;3.08;;
6898;SDS011;3488;42.616;23.350;2023-04-24T14:44:14;3.38;;;3.17;;
6898;SDS011;3488;42.616;23.350;2023-04-24T14:46:41;4.40;;;3.40;;
6898;SDS011;3488;42.616;23.350;2023-04-24T14:49:08;3.90;;;3.65;;
6898;SDS011;3488;42.616;23.350;2023-04-24T14:51:37;4.68;;;3.85;;
6898;SDS011;3488;42.616;23.350;2023-04-24T14:54:04;5.72;;;3.95;;
6898;SDS011;3488;42.616;23.350;2023-04-24T14:56:33;3.78;;;3.58;;
6898;SDS011;3488;42.616;23.350;2023-04-24T14:59:00;4.97;;;4.57;;
6898;SDS011;3488;42.616;23.350;2023-04-24T15:01:29;4.13;;;3.83;;
6898;SDS011;3488;42.616;23.350;2023-04-24T15:03:56;4.75;;;4.30;;
6898;SDS011;3488;42.616;23.350;2023-04-24T15:06:22;4.50;;;4.20;;
6898;SDS011;3488;42.616;23.350;2023-04-24T15:08:50;4.20;;;4.00;;
6898;SDS011;3488;42.616;23.350;2023-04-24T15:11:17;5.88;;;4.53;;